Time,TemperatureF,DewpointF,PressureIn,WindDirection,WindDirectionDegrees,WindSpeedMPH,WindSpeedGustMPH,Humidity,HourlyPrecipIn,Conditions,Clouds,dailyrainin,SoftwareType,DateUTC
2013-09-06 00:07:00,48.7,44.0,29.91,SSE,155,0.0,1.0,84,0.00,,,0.00,weatherlink.com 1.10,2013-09-06 06:07:00,
2013-09-06 00:22:00,48.9,43.0,29.92,SE,141,1.0,2.0,81,0.00,,,0.00,weatherlink.com 1.10,2013-09-06 06:22:00,
2013-09-06 00:37:00,48.6,43.0,29.92,SSE,153,0.0,0.0,82,0.00,,,0.00,weatherlink.com 1.10,2013-09-06 06:37:00,
2013-09-06 00:53:00,47.2,43.0,29.93,SSE,152,0.0,1.0,84,0.00,,,0.00,weatherlink.com 1.10,2013-09-06 06:53:00,
2013-09-06 01:08:00,46.4,42.0,29.93,SSE,152,0.0,0.0,85,0.00,,,0.00,weatherlink.com 1.10,2013-09-06 07:08:00,
2013-09-06 01:23:00,45.8,42.0,29.93,SSE,152,0.0,1.0,86,0.00,,,0.00,weatherlink.com 1.10,2013-09-06 07:23:00,
2013-09-06 01:38:00,45.4,42.0,29.93,SSE,152,1.0,1.0,86,0.00,,,0.00,weatherlink.com 1.10,2013-09-06 07:38:00,
2013-09-06 01:53:00,45.8,41.0,29.94,SSE,148,0.0,2.0,84,0.00,,,0.00,weatherlink.com 1.10,2013-09-06 07:53:00,
2013-09-06 02:08:00,46.5,41.0,29.94,SSE,148,1.0,2.0,81,0.00,,,0.00,weatherlink.com 1.10,2013-09-06 08:08:00,
2013-09-06 02:23:00,46.6,41.0,29.94,SSE,148,0.0,1.0,81,0.00,,,0.00,weatherlink.com 1.10,2013-09-06 08:23:00,
2013-09-06 02:38:00,46.0,41.0,29.94,SSE,148,0.0,0.0,83,0.00,,,0.00,weatherlink.com 1.10,2013-09-06 08:38:00,
2013-09-06 02:53:00,46.5,41.0,29.94,SSE,148,0.0,2.0,82,0.00,,,0.00,weatherlink.com 1.10,2013-09-06 08:53:00,
2013-09-06 03:08:00,45.4,41.0,29.93,SSE,148,1.0,1.0,84,0.00,,,0.00,weatherlink.com 1.10,2013-09-06 09:08:00,
2013-09-06 03:23:00,45.1,41.0,29.93,SSE,148,0.0,0.0,84,0.00,,,0.00,weatherlink.com 1.10,2013-09-06 09:23:00,
2013-09-06 03:38:00,44.6,40.0,29.93,SSE,148,0.0,1.0,83,0.00,,,0.00,weatherlink.com 1.10,2013-09-06 09:38:00,
2013-09-06 03:53:00,44.4,40.0,29.94,SSE,148,0.0,1.0,84,0.00,,,0.00,weatherlink.com 1.10,2013-09-06 09:53:00,
2013-09-06 04:08:00,43.8,39.0,29.94,SSE,148,0.0,1.0,84,0.00,,,0.00,weatherlink.com 1.10,2013-09-06 10:08:00,
2013-09-06 04:23:00,43.2,39.0,29.95,SSE,148,0.0,0.0,84,0.00,,,0.00,weatherlink.com 1.10,2013-09-06 10:23:00,
2013-09-06 04:38:00,42.8,39.0,29.95,SSE,148,0.0,1.0,86,0.00,,,0.00,weatherlink.com 1.10,2013-09-06 10:38:00,
2013-09-06 04:53:00,42.5,39.0,29.96,SSE,148,0.0,0.0,86,0.00,,,0.00,weatherlink.com 1.10,2013-09-06 10:53:00,
2013-09-06 05:08:00,42.2,39.0,29.96,SSE,148,0.0,0.0,87,0.00,,,0.00,weatherlink.com 1.10,2013-09-06 11:08:00,
2013-09-06 05:23:00,42.0,39.0,29.96,SSE,148,0.0,1.0,88,0.00,,,0.00,weatherlink.com 1.10,2013-09-06 11:23:00,
2013-09-06 05:38:00,41.8,39.0,29.97,SSE,148,0.0,1.0,88,0.00,,,0.00,weatherlink.com 1.10,2013-09-06 11:38:00,
2013-09-06 05:53:00,41.7,38.0,29.96,SSE,148,0.0,0.0,88,0.00,,,0.00,weatherlink.com 1.10,2013-09-06 11:53:00,
2013-09-06 06:08:00,41.4,38.0,29.97,SSE,148,0.0,1.0,88,0.00,,,0.00,weatherlink.com 1.10,2013-09-06 12:08:00,
2013-09-06 06:23:00,41.1,38.0,29.98,SSE,148,1.0,1.0,88,0.00,,,0.00,weatherlink.com 1.10,2013-09-06 12:23:00,
2013-09-06 06:38:00,41.1,38.0,29.98,SSE,148,0.0,2.0,89,0.00,,,0.00,weatherlink.com 1.10,2013-09-06 12:38:00,
2013-09-06 06:53:00,40.9,38.0,29.99,SSE,148,0.0,1.0,89,0.00,,,0.00,weatherlink.com 1.10,2013-09-06 12:53:00,
2013-09-06 07:08:00,40.7,38.0,29.99,SSE,148,0.0,1.0,90,0.00,,,0.00,weatherlink.com 1.10,2013-09-06 13:08:00,
2013-09-06 07:23:00,40.8,38.0,29.99,SSE,148,0.0,0.0,91,0.00,,,0.00,weatherlink.com 1.10,2013-09-06 13:23:00,
2013-09-06 07:38:00,42.2,40.0,30.00,SSE,160,0.0,1.0,92,0.00,,,0.00,weatherlink.com 1.10,2013-09-06 13:38:00,
2013-09-06 07:53:00,47.7,42.0,30.00,SSE,161,0.0,1.0,81,0.00,,,0.00,weatherlink.com 1.10,2013-09-06 13:53:00,
2013-09-06 08:08:00,52.6,44.0,29.99,SSE,160,0.0,1.0,72,0.00,,,0.00,weatherlink.com 1.10,2013-09-06 14:08:00,
2013-09-06 08:24:00,56.7,46.0,29.98,SSE,160,0.0,0.0,68,0.00,,,0.00,weatherlink.com 1.10,2013-09-06 14:24:00,
2013-09-06 08:39:00,57.4,46.0,29.98,SSE,160,0.0,1.0,65,0.00,,,0.00,weatherlink.com 1.10,2013-09-06 14:39:00,
2013-09-06 08:54:00,56.7,45.0,29.97,South,174,2.0,2.0,66,0.00,,,0.00,weatherlink.com 1.10,2013-09-06 14:54:00,
2013-09-06 09:09:00,58.6,44.0,29.97,South,174,1.0,2.0,58,0.00,,,0.00,weatherlink.com 1.10,2013-09-06 15:09:00,
2013-09-06 09:24:00,58.9,45.0,29.97,South,181,0.0,2.0,60,0.00,,,0.00,weatherlink.com 1.10,2013-09-06 15:24:00,
2013-09-06 09:39:00,60.3,45.0,29.97,South,187,1.0,2.0,57,0.00,,,0.00,weatherlink.com 1.10,2013-09-06 15:39:00,
2013-09-06 09:54:00,61.7,45.0,29.96,SSW,193,2.0,4.0,54,0.00,,,0.00,weatherlink.com 1.10,2013-09-06 15:54:00,
2013-09-06 10:09:00,63.2,45.0,29.95,SSW,195,2.0,5.0,51,0.00,,,0.00,weatherlink.com 1.10,2013-09-06 16:09:00,
2013-09-06 10:24:00,64.2,44.0,29.95,SSW,200,2.0,4.0,48,0.00,,,0.00,weatherlink.com 1.10,2013-09-06 16:24:00,
2013-09-06 10:39:00,64.5,45.0,29.94,SSE,158,0.0,4.0,49,0.00,,,0.00,weatherlink.com 1.10,2013-09-06 16:39:00,
2013-09-06 10:54:00,65.1,43.0,29.94,SSE,158,0.0,5.0,45,0.00,,,0.00,weatherlink.com 1.10,2013-09-06 16:54:00,
2013-09-06 11:09:00,65.8,44.0,29.94,SE,143,0.0,5.0,45,0.00,,,0.00,weatherlink.com 1.10,2013-09-06 17:09:00,
2013-09-06 11:24:00,66.3,44.0,29.93,South,170,0.0,5.0,45,0.00,,,0.00,weatherlink.com 1.10,2013-09-06 17:24:00,
2013-09-06 11:39:00,67.1,44.0,29.92,SSW,193,1.0,4.0,43,0.00,,,0.00,weatherlink.com 1.10,2013-09-06 17:39:00,
2013-09-06 11:54:00,68.0,43.0,29.92,SE,142,1.0,4.0,40,0.00,,,0.00,weatherlink.com 1.10,2013-09-06 17:54:00,
2013-09-06 12:09:00,68.6,42.0,29.91,SSE,167,0.0,4.0,38,0.00,,,0.00,weatherlink.com 1.10,2013-09-06 18:09:00,
2013-09-06 12:24:00,69.2,41.0,29.90,SSE,165,0.0,5.0,36,0.00,,,0.00,weatherlink.com 1.10,2013-09-06 18:24:00,
2013-09-06 12:39:00,70.5,38.0,29.89,SE,138,0.0,4.0,31,0.00,,,0.00,weatherlink.com 1.10,2013-09-06 18:39:00,
2013-09-06 12:54:00,70.6,41.0,29.88,SSE,160,1.0,1.0,34,0.00,,,0.00,weatherlink.com 1.10,2013-09-06 18:54:00,
2013-09-06 13:09:00,72.3,42.0,29.88,SSW,197,2.0,5.0,33,0.00,,,0.00,weatherlink.com 1.10,2013-09-06 19:09:00,
2013-09-06 13:40:00,71.1,40.0,29.86,SSE,166,0.0,5.0,33,0.00,,,0.00,weatherlink.com 1.10,2013-09-06 19:40:00,
2013-09-06 13:55:00,71.2,41.0,29.86,SSW,198,2.0,3.0,34,0.00,,,0.00,weatherlink.com 1.10,2013-09-06 19:55:00,
2013-09-06 14:10:00,69.0,39.0,29.86,SSE,156,0.0,4.0,34,0.00,,,0.00,weatherlink.com 1.10,2013-09-06 20:10:00,
2013-09-06 14:25:00,68.4,41.0,29.85,South,181,0.0,2.0,37,0.00,,,0.00,weatherlink.com 1.10,2013-09-06 20:25:00,
2013-09-06 14:40:00,68.5,39.0,29.85,SSE,165,0.0,2.0,34,0.00,,,0.00,weatherlink.com 1.10,2013-09-06 20:40:00,
2013-09-06 14:55:00,68.1,40.0,29.84,South,174,1.0,2.0,36,0.00,,,0.00,weatherlink.com 1.10,2013-09-06 20:55:00,
2013-09-06 15:10:00,68.4,43.0,29.84,SSE,153,0.0,2.0,40,0.00,,,0.00,weatherlink.com 1.10,2013-09-06 21:10:00,
2013-09-06 15:25:00,69.6,40.0,29.83,SSE,148,1.0,3.0,34,0.00,,,0.00,weatherlink.com 1.10,2013-09-06 21:25:00,
2013-09-06 15:40:00,69.4,42.0,29.83,SSE,148,0.0,4.0,37,0.00,,,0.00,weatherlink.com 1.10,2013-09-06 21:40:00,
2013-09-06 15:55:00,68.6,41.0,29.83,SE,145,1.0,8.0,37,0.00,,,0.00,weatherlink.com 1.10,2013-09-06 21:55:00,
2013-09-06 16:10:00,67.4,43.0,29.83,SE,144,2.0,7.0,41,0.00,,,0.00,weatherlink.com 1.10,2013-09-06 22:10:00,
2013-09-06 16:25:00,66.9,42.0,29.83,SSE,153,1.0,6.0,41,0.00,,,0.00,weatherlink.com 1.10,2013-09-06 22:25:00,
2013-09-06 16:40:00,65.9,42.0,29.83,SSE,162,0.0,5.0,42,0.00,,,0.00,weatherlink.com 1.10,2013-09-06 22:40:00,
2013-09-06 16:55:00,65.1,42.0,29.83,South,181,1.0,2.0,43,0.00,,,0.00,weatherlink.com 1.10,2013-09-06 22:55:00,
2013-09-06 17:10:00,64.5,46.0,29.85,SSE,158,1.0,2.0,51,0.00,,,0.00,weatherlink.com 1.10,2013-09-06 23:10:00,
2013-09-06 17:25:00,60.8,51.0,29.86,SSE,148,1.0,4.0,69,0.01,,,0.01,weatherlink.com 1.10,2013-09-06 23:25:00,
2013-09-06 17:40:00,57.0,51.0,29.85,SSE,150,0.0,1.0,80,0.05,,,0.05,weatherlink.com 1.10,2013-09-06 23:40:00,
2013-09-06 17:55:00,54.7,51.0,29.86,South,179,0.0,2.0,86,0.06,,,0.06,weatherlink.com 1.10,2013-09-06 23:55:00,
2013-09-06 18:10:00,54.5,51.0,29.85,South,170,0.0,1.0,89,0.07,,,0.07,weatherlink.com 1.10,2013-09-07 00:10:00,
2013-09-06 18:25:00,53.8,50.0,29.85,South,170,0.0,1.0,88,0.06,,,0.07,weatherlink.com 1.10,2013-09-07 00:25:00,
2013-09-06 18:40:00,53.7,51.0,29.86,South,170,0.0,1.0,90,0.02,,,0.07,weatherlink.com 1.10,2013-09-07 00:40:00,
2013-09-06 18:55:00,53.4,51.0,29.86,South,170,0.0,1.0,90,0.01,,,0.07,weatherlink.com 1.10,2013-09-07 00:55:00,
2013-09-06 19:10:00,53.3,51.0,29.87,SSE,166,0.0,1.0,91,0.00,,,0.07,weatherlink.com 1.10,2013-09-07 01:10:00,
2013-09-06 19:25:00,53.2,51.0,29.89,SSE,167,0.0,0.0,91,0.00,,,0.07,weatherlink.com 1.10,2013-09-07 01:25:00,
2013-09-06 19:40:00,53.1,51.0,29.90,SSE,166,0.0,0.0,91,0.00,,,0.07,weatherlink.com 1.10,2013-09-07 01:40:00,
2013-09-06 19:55:00,52.7,50.0,29.90,SSE,158,0.0,1.0,90,0.00,,,0.07,weatherlink.com 1.10,2013-09-07 01:55:00,
2013-09-06 20:10:00,52.4,50.0,29.90,SSE,158,1.0,1.0,90,0.00,,,0.07,weatherlink.com 1.10,2013-09-07 02:10:00,
2013-09-06 20:25:00,52.0,50.0,29.91,SSE,158,0.0,1.0,91,0.00,,,0.07,weatherlink.com 1.10,2013-09-07 02:25:00,
2013-09-06 20:40:00,51.6,49.0,29.92,SE,145,1.0,5.0,91,0.00,,,0.07,weatherlink.com 1.10,2013-09-07 02:40:00,
2013-09-06 20:55:00,51.4,49.0,29.92,SE,145,0.0,1.0,90,0.00,,,0.07,weatherlink.com 1.10,2013-09-07 02:55:00,
2013-09-06 21:10:00,50.8,47.0,29.92,SSE,150,0.0,1.0,88,0.00,,,0.07,weatherlink.com 1.10,2013-09-07 03:10:00,
2013-09-06 21:25:00,50.1,47.0,29.93,SSE,150,0.0,1.0,89,0.00,,,0.07,weatherlink.com 1.10,2013-09-07 03:25:00,
2013-09-06 21:40:00,49.1,46.0,29.94,SSE,150,0.0,1.0,90,0.00,,,0.07,weatherlink.com 1.10,2013-09-07 03:40:00,
2013-09-06 21:55:00,48.2,46.0,29.94,SSE,150,0.0,0.0,91,0.00,,,0.07,weatherlink.com 1.10,2013-09-07 03:55:00,
2013-09-06 22:10:00,47.6,45.0,29.94,SSE,151,0.0,0.0,92,0.00,,,0.07,weatherlink.com 1.10,2013-09-07 04:10:00,
2013-09-06 22:25:00,46.8,44.0,29.94,SSE,150,0.0,0.0,91,0.00,,,0.07,weatherlink.com 1.10,2013-09-07 04:25:00,
2013-09-06 22:40:00,45.9,44.0,29.94,SSE,150,0.0,1.0,93,0.00,,,0.07,weatherlink.com 1.10,2013-09-07 04:40:00,
2013-09-06 22:55:00,45.3,43.0,29.95,SSE,150,0.0,1.0,92,0.00,,,0.07,weatherlink.com 1.10,2013-09-07 04:55:00,
2013-09-06 23:10:00,45.0,43.0,29.95,SSE,151,0.0,0.0,93,0.00,,,0.07,weatherlink.com 1.10,2013-09-07 05:10:00,
2013-09-06 23:25:00,44.8,43.0,29.95,SSE,150,0.0,0.0,94,0.00,,,0.07,weatherlink.com 1.10,2013-09-07 05:25:00,
2013-09-06 23:40:00,44.9,43.0,29.95,SSE,150,0.0,0.0,94,0.00,,,0.07,weatherlink.com 1.10,2013-09-07 05:40:00,
2013-09-06 23:55:00,44.6,43.0,29.95,SSE,151,0.0,0.0,94,0.00,,,0.07,weatherlink.com 1.10,2013-09-07 05:55:00,